Latest Coastal Weather Observations for Maria Island

IDT60701

Issued at 12:02 am EST Thursday 27 June 2019 (issued every 10 minutes, with the page automatically refreshed every 10 minutes)

About coastal observations | Map of coastal stations | Coastal observations for TAS | Marine services | Other Formats
Station Details ID: 092124 Name: MARIA ISLAND (POINT LESUEUR) Lat: -42.66 Lon: 148.02 Height: 28.0 m
Data from the previous 72 hours. | See also: Recent months at Maria Island
Date/Time
EST
Wind Sea
Height
m
Swell Vis
km
Cloud Weather Temp
°C
Press
hPa
Rain since
9am
mm
Dir  Spd
kts
Gust
kts
Height
m
Period
s
Dir
27/12:00am N 14 16 - - - - - - - 11.3 1031.5 0.0
 
Date/Time
EST
Wind Sea
Height
m
Swell Vis
km
Cloud Weather Temp
°C
Press
hPa
Rain since
9am
mm
Dir  Spd
kts
Gust
kts
Height
m
Period
s
Dir
26/11:30pm NNW 11 15 - - - - - - - 10.7 1031.7 0.0
26/11:00pm NNW 10 11 - - - - - - - 10.2 1031.9 0.0
26/10:30pm NNW 12 13 - - - - - - - 10.9 1031.9 0.0
26/10:00pm N 14 17 - - - - - - - 11.8 1031.8 0.0
26/09:30pm N 13 14 - - - - - - - 11.5 1031.8 0.0
26/09:00pm NNW 8 9 - - - - - - - 10.6 1032.1 0.0
26/08:30pm NW 8 9 - - - - - - - 10.7 1032.1 0.0
26/08:00pm NW 9 11 - - - - - - - 10.9 1032.3 0.0
26/07:30pm NNW 10 11 - - - - - - - 11.3 1032.3 0.0
26/07:00pm NW 8 10 - - - - - - - 11.0 1032.4 0.0
26/06:30pm NW 7 8 - - - - - - - 11.2 1032.2 0.0
26/06:00pm NNW 6 8 - - - - - - - 11.4 1031.9 0.0
26/05:30pm NNW 9 12 - - - - - - - 12.1 1031.9 0.0
26/05:00pm NNW 8 12 - - - - - - - 12.4 1031.8 0.0
26/04:30pm NNW 9 10 - - - - - - - 12.5 1031.8 0.0
26/04:00pm N 8 9 - - - - - - - 12.6 1031.9 0.0
26/03:30pm N 9 12 - - - - - - - 12.8 1031.7 0.0
26/03:00pm NNW 13 15 - - - - - - - 13.3 1031.7 0.0
26/02:30pm NNW 11 13 - - - - - - - 13.4 1032.1 0.0
26/02:00pm N 10 11 - - - - - - - 13.3 1032.2 0.0
26/01:30pm N 9 11 - - - - - - - 12.6 1032.5 0.0
26/01:00pm N 10 10 - - - - - - - 12.3 1032.8 0.0
26/12:30pm N 9 10 - - - - - - - 12.0 1033.3 0.0
26/12:00pm N 9 11 - - - - - - - 12.0 1033.7 0.0
26/11:30am NNW 11 13 - - - - - - - 11.5 1033.9 0.0
26/11:00am NNW 10 11 - - - - - - - 11.3 1034.2 0.0
26/10:30am N 11 13 - - - - - - - 11.3 1034.4 0.0
26/10:00am N 11 14 - - - - - - - 10.5 1034.6 0.0
26/09:30am N 10 13 - - - - - - - 9.9 1034.5 0.0
26/09:00am NNW 7 10 - - - - - - - 9.3 1034.6 0.0
26/08:30am NNW 4 7 - - - - - - - 8.6 1034.6 0.0
26/08:00am NW 6 8 - - - - - - - 8.2 1034.6 0.0
26/07:30am NW 9 9 - - - - - - - 8.5 1034.3 0.0
26/07:00am NW 8 10 - - - - - - - 8.3 1034.0 0.0
26/06:30am NW 9 10 - - - - - - - 8.2 1033.7 0.0
26/06:00am NW 7 9 - - - - - - - 8.0 1033.5 0.0
26/05:30am NW 9 12 - - - - - - - 8.1 1033.3 0.0
26/05:00am NW 11 13 - - - - - - - 8.7 1032.9 0.0
26/04:30am NW 12 14 - - - - - - - 8.5 1032.6 0.0
26/04:00am NNW 11 12 - - - - - - - 8.4 1032.8 0.0
26/03:30am NW 8 9 - - - - - - - 7.8 1032.8 0.0
26/03:00am NNW 9 10 - - - - - - - 9.3 1033.0 0.0
26/02:30am NNW 10 11 - - - - - - - 9.5 1033.1 0.0
26/02:00am NNW 10 11 - - - - - - - 9.6 1032.9 0.0
26/01:30am NNW 6 8 - - - - - - - 9.4 1032.9 0.0
26/01:00am NNW 10 12 - - - - - - - 10.1 1032.8 0.0
26/12:30am NNW 8 10 - - - - - - - 10.2 1033.0 0.0
26/12:00am NNW 9 10 - - - - - - - 10.3 1033.1 0.0
 
Date/Time
EST
Wind Sea
Height
m
Swell Vis
km
Cloud Weather Temp
°C
Press
hPa
Rain since
9am
mm
Dir  Spd
kts
Gust
kts
Height
m
Period
s
Dir
25/11:30pm NNW 7 8 - - - - - - - 10.5 1033.3 0.0
25/11:00pm NW 7 8 - - - - - - - 10.1 1033.3 0.0
25/10:30pm NW 9 11 - - - - - - - 10.4 1033.1 0.0
25/10:00pm NNW 9 11 - - - - - - - 10.7 1033.0 0.0
25/09:30pm NNW 7 11 - - - - - - - 10.7 1032.9 0.0
25/09:00pm WNW 5 6 - - - - - - - 10.2 1032.7 0.0
25/08:30pm NNW 7 8 - - - - - - - 10.6 1032.4 0.0
25/08:00pm NW 7 8 - - - - - - - 10.8 1032.3 0.0
25/07:30pm NW 7 9 - - - - - - - 10.7 1032.3 0.0
25/07:00pm NNW 7 9 - - - - - - - 11.2 1032.3 0.0
25/06:30pm NNW 5 8 - - - - - - - 11.2 1032.1 0.0
25/06:00pm N 12 14 - - - - - - - 11.6 1031.8 0.0
25/05:30pm N 14 17 - - - - - - - 11.7 1031.6 0.0
25/05:00pm N 13 16 - - - - - - - 11.7 1031.5 0.0
25/04:30pm NNW 14 16 - - - - - - - 11.8 1031.5 0.0
25/04:00pm NNW 14 16 - - - - - - - 11.9 1031.4 0.0
25/03:30pm NNW 12 14 - - - - - - - 12.3 1031.5 0.0
25/03:00pm NNW 9 10 - - - - - - - 12.3 1031.4 0.0
25/02:30pm NNW 10 11 - - - - - - - 12.5 1031.1 0.0
25/02:00pm N 10 11 - - - - - - - 13.3 1031.2 0.0
25/01:30pm NNW 10 13 - - - - - - - 13.0 1031.2 0.0
25/01:00pm N 14 18 - - - - - - - 13.0 1031.1 0.0
25/12:30pm NNW 10 12 - - - - - - - 12.1 1031.7 0.0
25/12:00pm NNW 11 13 - - - - - - - 11.6 1032.1 0.0
25/11:30am NNW 9 11 - - - - - - - 10.6 1032.4 0.0
25/11:00am NNW 12 15 - - - - - - - 10.4 1032.7 0.0
25/10:30am NNW 9 11 - - - - - - - 9.9 1033.0 0.0
25/10:00am NNW 8 9 - - - - - - - 9.6 1033.3 0.0
25/09:30am N 7 8 - - - - - - - 9.4 1033.4 0.0
25/09:00am NNW 7 8 - - - - - - - 8.4 1033.3 0.0
25/08:30am NW 7 8 - - - - - - - 7.5 1033.2 0.0
25/08:00am WNW 7 9 - - - - - - - 6.8 1033.3 0.0
25/07:30am WNW 9 11 - - - - - - - 7.0 1032.9 0.0
25/07:00am NW 10 11 - - - - - - - 6.6 1032.8 0.0
25/06:30am NW 11 13 - - - - - - - 7.6 1032.5 0.0
25/06:00am NNW 11 12 - - - - - - - 7.8 1032.4 0.0
25/05:30am NNW 9 10 - - - - - - - 7.5 1032.4 0.0
25/05:00am NW 9 10 - - - - - - - 7.3 1032.3 0.0
25/04:30am NW 9 11 - - - - - - - 7.5 1032.3 0.0
25/04:00am NW 10 13 - - - - - - - 7.4 1032.2 0.0
25/03:30am NW 12 13 - - - - - - - 7.6 1032.0 0.0
25/03:00am NNW 12 14 - - - - - - - 8.0 1032.3 0.0
25/02:30am NNW 11 13 - - - - - - - 7.7 1032.4 0.0
25/02:00am NNW 10 11 - - - - - - - 7.7 1032.4 0.0
25/01:30am N 9 11 - - - - - - - 7.8 1032.6 0.0
25/01:00am NW 9 11 - - - - - - - 7.3 1032.6 0.0
25/12:30am NNW 10 11 - - - - - - - 7.7 1032.4 0.0
25/12:00am NNW 11 13 - - - - - - - 7.8 1032.8 0.0
 
Date/Time
EST
Wind Sea
Height
m
Swell Vis
km
Cloud Weather Temp
°C
Press
hPa
Rain since
9am
mm
Dir  Spd
kts
Gust
kts
Height
m
Period
s
Dir
24/11:30pm NW 12 13 - - - - - - - 7.8 1033.0 0.0
24/11:00pm NNW 13 15 - - - - - - - 7.5 1032.7 0.0
24/10:30pm NW 12 15 - - - - - - - 7.8 1032.7 0.0
24/10:00pm NNW 11 12 - - - - - - - 7.9 1032.9 0.0
24/09:30pm NW 7 8 - - - - - - - 7.1 1033.0 0.0
24/09:00pm WNW 7 9 - - - - - - - 5.9 1033.2 0.0
24/08:30pm NNW 5 7 - - - - - - - 7.3 1033.3 0.0
24/08:00pm NW 8 10 - - - - - - - 7.2 1033.6 0.0
24/07:30pm WNW 10 12 - - - - - - - 7.8 1033.6 0.0
24/07:00pm W 11 13 - - - - - - - 8.5 1033.2 0.0
24/06:30pm W 11 14 - - - - - - - 8.3 1033.0 0.0
24/06:00pm W 7 11 - - - - - - - 8.5 1032.8 0.0
24/05:30pm WNW 7 8 - - - - - - - 8.8 1032.4 0.0
24/05:00pm W 9 12 - - - - - - - 9.1 1032.2 0.0
24/04:30pm N 9 11 - - - - - - - 9.9 1031.9 0.0
24/04:00pm N 12 14 - - - - - - - 10.4 1031.5 0.0
24/03:30pm N 10 12 - - - - - - - 10.8 1031.4 0.0
24/03:00pm N 11 12 - - - - - - - 10.9 1031.5 0.0
24/02:30pm N 12 14 - - - - - - - 10.9 1031.3 0.0
24/02:00pm N 12 13 - - - - - - - 10.7 1031.3 0.0
24/01:30pm N 12 14 - - - - - - - 10.6 1031.6 0.0
24/01:00pm N 12 14 - - - - - - - 10.4 1031.9 0.0
24/12:30pm N 10 11 - - - - - - - 10.2 1032.2 0.0
24/12:00pm NNW 5 6 - - - - - - - 9.4 1032.9 0.0
24/11:30am N 6 7 - - - - - - - 8.8 1033.2 0.0
24/11:00am NNW 7 9 - - - - - - - 8.5 1033.4 0.0
24/10:30am N 9 11 - - - - - - - 8.1 1033.6 0.0
24/10:00am N 8 9 - - - - - - - 7.6 1033.6 0.0
24/09:30am NNW 6 7 - - - - - - - 7.2 1033.6 0.0
24/09:00am N 3 5 - - - - - - - 7.0 1033.5 0.2
24/08:30am NNW 3 4 - - - - - - - 5.9 1033.5 0.2
24/08:00am NW 4 5 - - - - - - - 5.3 1033.4 0.2
24/07:30am NNW 4 6 - - - - - - - 5.5 1033.3 0.2
24/07:00am NNW 5 6 - - - - - - - 5.9 1033.4 0.2
24/06:30am WNW 4 5 - - - - - - - 5.8 1033.4 0.2
24/06:00am NW 4 5 - - - - - - Recent precip. 5.3 1033.4 0.2
24/05:30am NW 5 6 - - - - - - - 5.5 1033.2 0.0
24/05:00am WNW 6 7 - - - - - - - 5.1 1033.2 0.0
24/04:30am WNW 5 6 - - - - - - - 5.7 1032.9 0.0
24/04:00am NW 4 5 - - - - - - - 5.7 1032.8 0.0
24/03:30am WNW 4 5 - - - - - - - 5.4 1033.0 0.0
24/03:00am WNW 5 5 - - - - - - - 5.5 1033.3 0.0
24/02:30am WNW 3 3 - - - - - - - 6.1 1033.2 0.0
24/02:00am WSW 2 3 - - - - - - - 6.8 1033.2 0.0
24/01:30am WNW 3 4 - - - - - - - 6.4 1032.9 0.0
24/01:00am WNW 3 3 - - - - - - - 6.1 1032.7 0.0
24/12:30am NNW 4 5 - - - - - - - 6.6 1032.6 0.0

Other formats

Comma delimited format used in spreadsheet applications
http://www.bom.gov.au/fwo/IDT60701/IDT60701.95988.axf

JavaScript Object Notation format (JSON) in row-major order
http://www.bom.gov.au/fwo/IDT60701/IDT60701.95988.json

Data quality

Most of these data are generated automatically and are frequently updated. Quality checks on data are not normally performed. It is possible for incorrect values to appear. Refer to information at About Latest Weather Observations and please check the disclaimer before using these data.